createdAt,value
2018-05-02T00:00:56.581Z,100471.77
2018-05-02T00:01:59.061Z,100467.25
2018-05-02T00:03:01.573Z,100475.89
2018-05-02T00:04:04.057Z,100468.06
2018-05-02T00:05:06.527Z,100469.87
2018-05-02T00:06:09.013Z,100469.87
2018-05-02T00:07:11.496Z,100481.78
2018-05-02T00:08:14.013Z,100470.00
2018-05-02T00:09:16.504Z,100465.88
2018-05-02T00:10:18.988Z,100470.40
2018-05-02T00:11:21.455Z,100471.77
2018-05-02T00:12:23.941Z,100469.03
2018-05-02T00:13:26.440Z,100471.77
2018-05-02T00:14:28.921Z,100470.67
2018-05-02T00:15:31.411Z,100479.31
2018-05-02T00:16:33.881Z,100478.34
2018-05-02T00:17:36.379Z,100471.89
2018-05-02T00:18:38.899Z,100469.14
2018-05-02T00:19:41.411Z,100469.95
2018-05-02T00:20:43.897Z,100471.73
2018-05-02T00:21:46.389Z,100466.80
2018-05-02T00:22:48.891Z,100468.98
2018-05-02T00:23:51.398Z,100468.98
2018-05-02T00:24:53.899Z,100460.34
2018-05-02T00:25:56.375Z,100462.12
2018-05-02T00:26:58.922Z,100467.61
2018-05-02T00:28:01.399Z,100463.89
2018-05-02T00:29:03.937Z,100467.45
2018-05-02T00:30:06.420Z,100467.20
2018-05-02T00:31:08.959Z,100471.73
2018-05-02T00:32:11.449Z,100463.09
2018-05-02T00:33:13.947Z,100463.66
2018-05-02T00:34:16.453Z,100468.02
2018-05-02T00:35:18.936Z,100457.19
2018-05-02T00:36:21.420Z,100460.34
2018-05-02T00:37:23.923Z,100460.91
2018-05-02T00:38:26.435Z,100462.69
2018-05-02T00:39:28.949Z,100464.22
2018-05-02T00:40:31.422Z,100468.90
2018-05-02T00:41:33.908Z,100463.54
2018-05-02T00:42:36.402Z,100465.07
2018-05-02T00:43:38.877Z,100470.56
2018-05-02T00:44:41.376Z,100470.72
2018-05-02T00:45:43.868Z,100467.98
2018-05-02T00:46:46.356Z,100471.28
2018-05-02T00:47:48.858Z,100470.88
2018-05-02T00:49:03.311Z,100461.44
2018-05-02T00:50:05.813Z,100465.95
2018-05-02T00:51:08.316Z,100465.71
2018-05-02T00:52:10.809Z,100468.86
2018-05-02T00:53:13.292Z,100468.45
2018-05-02T00:54:15.797Z,100472.73
2018-05-02T00:55:18.287Z,100472.33
2018-05-02T00:56:20.765Z,100472.89
2018-05-02T00:57:23.264Z,100470.15
2018-05-02T00:58:25.753Z,100476.05
2018-05-02T00:59:28.261Z,100468.78
2018-05-02T01:00:30.775Z,100470.72
2018-05-02T01:01:33.276Z,100464.42
2018-05-02T01:02:35.779Z,100474.59
2018-05-02T01:03:38.272Z,100475.80
2018-05-02T01:04:40.811Z,100474.99
2018-05-02T01:05:43.296Z,100471.84
2018-05-02T01:06:45.781Z,100477.34
2018-05-02T01:07:48.291Z,100474.02
2018-05-02T01:08:50.850Z,100476.77
2018-05-02T01:09:53.342Z,100481.70
2018-05-02T01:10:55.864Z,100475.55
2018-05-02T01:11:58.376Z,100478.70
2018-05-02T01:13:00.868Z,100471.84
2018-05-02T01:14:03.350Z,100471.03
2018-05-02T01:15:05.860Z,100466.52
2018-05-02T01:16:08.362Z,100461.42
2018-05-02T01:17:10.853Z,100468.70
2018-05-02T01:18:13.341Z,100462.40
2018-05-02T01:19:15.830Z,100469.66
2018-05-02T01:20:18.344Z,100467.48
2018-05-02T01:21:20.840Z,100467.08
2018-05-02T01:22:23.343Z,100466.11
2018-05-02T01:23:25.850Z,100469.26
2018-05-02T01:24:28.363Z,100463.36
2018-05-02T01:25:30.887Z,100470.23
2018-05-02T01:26:33.354Z,100470.39
2018-05-02T01:27:35.840Z,100469.42
2018-05-02T01:28:38.363Z,100465.86
2018-05-02T01:29:40.925Z,100464.09
2018-05-02T01:30:43.484Z,100465.46
2018-05-02T01:31:45.986Z,100464.66
2018-05-02T01:32:48.463Z,100471.92
2018-05-02T01:33:50.934Z,100468.77
2018-05-02T01:34:53.432Z,100470.14
2018-05-02T01:35:55.937Z,100469.34
2018-05-02T01:36:58.425Z,100467.80
2018-05-02T01:38:00.931Z,100470.55
2018-05-02T01:39:03.400Z,100471.52
2018-05-02T01:40:05.899Z,100473.45
2018-05-02T01:41:08.390Z,100471.92
2018-05-02T01:42:10.884Z,100470.14
2018-05-02T01:43:13.369Z,100458.36
2018-05-02T01:44:15.864Z,100455.61
2018-05-02T01:45:18.345Z,100453.84
2018-05-02T01:46:20.845Z,100455.05
2018-05-02T01:47:23.330Z,100455.61
2018-05-02T01:48:25.818Z,100447.94
2018-05-02T01:49:28.326Z,100453.84
2018-05-02T01:50:30.813Z,100446.56
2018-05-02T01:51:33.320Z,100446.00
2018-05-02T01:52:35.814Z,100443.98
2018-05-02T01:53:38.334Z,100445.36
2018-05-02T01:54:40.825Z,100443.98
2018-05-02T01:55:43.310Z,100445.36
2018-05-02T01:56:45.811Z,100444.95
2018-05-02T01:57:48.315Z,100440.03
2018-05-02T01:58:50.794Z,100435.10
2018-05-02T01:59:53.258Z,100443.34
2018-05-02T02:00:55.779Z,100440.59
2018-05-02T02:01:58.342Z,100437.03
2018-05-02T02:03:00.899Z,100437.44
2018-05-02T02:04:03.393Z,100441.16
2018-05-02T02:05:05.877Z,100442.53
2018-05-02T02:06:08.384Z,100446.23
2018-05-02T02:07:10.903Z,100438.16
2018-05-02T02:08:13.413Z,100438.16
2018-05-02T02:09:15.882Z,100438.57
2018-05-02T02:10:18.365Z,100437.20
2018-05-02T02:11:20.852Z,100435.95
2018-05-02T02:12:23.373Z,100437.48
2018-05-02T02:13:25.842Z,100438.45
2018-05-02T02:14:28.329Z,100431.59
2018-05-02T02:15:30.835Z,100433.69
2018-05-02T02:16:33.320Z,100434.50
2018-05-02T02:17:35.843Z,100436.44
2018-05-02T02:18:38.351Z,100432.08
2018-05-02T02:19:40.837Z,100431.52
2018-05-02T02:20:43.307Z,100433.45
2018-05-02T02:21:45.818Z,100426.59
2018-05-02T02:22:48.327Z,100428.52
2018-05-02T02:23:50.831Z,100423.03
2018-05-02T02:24:53.336Z,100426.34
2018-05-02T02:25:55.892Z,100423.76
2018-05-02T02:26:58.369Z,100422.95
2018-05-02T02:28:00.859Z,100420.20
2018-05-02T02:29:03.343Z,100419.23
2018-05-02T02:30:05.837Z,100417.86
2018-05-02T02:31:08.314Z,100416.49
2018-05-02T02:32:10.817Z,100415.12
2018-05-02T02:33:13.320Z,100409.23
2018-05-02T02:34:15.811Z,100414.31
2018-05-02T02:35:18.300Z,100413.34
2018-05-02T02:36:20.804Z,100417.63
2018-05-02T02:37:23.315Z,100416.25
2018-05-02T02:38:25.821Z,100413.27
2018-05-02T02:39:28.297Z,100410.11
2018-05-02T02:40:30.787Z,100411.48
2018-05-02T02:41:33.295Z,100413.58
2018-05-02T02:42:35.766Z,100411.41
2018-05-02T02:43:38.360Z,100405.34
2018-05-02T02:44:40.933Z,100403.58
2018-05-02T02:45:43.417Z,100407.85
2018-05-02T02:46:45.906Z,100407.28
2018-05-02T02:47:48.395Z,100410.84
2018-05-02T02:48:50.905Z,100410.03
2018-05-02T02:49:53.446Z,100403.58
2018-05-02T02:50:56.016Z,100410.03
2018-05-02T02:51:58.449Z,100407.28
2018-05-02T02:53:01.025Z,100410.84
2018-05-02T02:54:03.528Z,100409.87
2018-05-02T02:55:06.032Z,100409.06
2018-05-02T02:56:08.601Z,100408.25
2018-05-02T02:57:11.088Z,100412.38
2018-05-02T02:58:13.592Z,100412.12
2018-05-02T02:59:16.103Z,100408.81
2018-05-02T03:01:36.578Z,100413.66
2018-05-02T03:02:39.084Z,100413.74
2018-05-02T03:03:41.587Z,100418.02
2018-05-02T03:04:44.094Z,100415.52
2018-05-02T03:05:46.592Z,100421.00
2018-05-02T03:06:49.080Z,100415.12
2018-05-02T03:07:51.550Z,100421.66
2018-05-02T03:08:54.051Z,100426.17
2018-05-02T03:09:56.552Z,100418.27
2018-05-02T03:10:59.082Z,100423.59
2018-05-02T03:12:01.655Z,100424.40
2018-05-02T03:13:04.201Z,100428.67
2018-05-02T03:14:06.708Z,100426.73
2018-05-02T03:15:09.211Z,100426.73
2018-05-02T03:16:11.743Z,100422.06
2018-05-02T03:17:14.237Z,100426.50
2018-05-02T03:18:16.730Z,100424.16
2018-05-02T03:19:19.252Z,100424.72
2018-05-02T03:20:21.742Z,100423.19
2018-05-02T03:21:24.222Z,100417.30
2018-05-02T03:22:26.694Z,100423.75
2018-05-02T03:23:29.180Z,100429.89
2018-05-02T03:24:31.670Z,100424.80
2018-05-02T03:25:34.139Z,100422.06
2018-05-02T03:26:36.626Z,100418.91
2018-05-02T03:27:39.127Z,100414.95
2018-05-02T03:28:41.612Z,100417.14
2018-05-02T03:29:44.152Z,100417.05
2018-05-02T03:30:46.637Z,100417.05
2018-05-02T03:31:49.159Z,100427.22
2018-05-02T03:32:51.659Z,100423.67
2018-05-02T03:33:54.145Z,100430.13
2018-05-02T03:34:56.638Z,100421.64
2018-05-02T03:35:59.128Z,100425.92
2018-05-02T03:37:01.595Z,100422.77
2018-05-02T03:38:04.108Z,100424.71
2018-05-02T03:39:06.600Z,100428.42
2018-05-02T03:40:09.124Z,100430.77
2018-05-02T03:41:11.691Z,100422.53
2018-05-02T03:42:14.180Z,100419.52
2018-05-02T03:43:16.683Z,100420.88
2018-05-02T03:44:19.246Z,100421.29
2018-05-02T03:45:21.761Z,100422.25
2018-05-02T03:46:24.266Z,100419.27
2018-05-02T03:47:26.763Z,100428.47
2018-05-02T03:48:29.238Z,100430.65
2018-05-02T03:49:31.702Z,100425.88
2018-05-02T03:50:34.204Z,100426.45
2018-05-02T03:51:36.674Z,100430.56
2018-05-02T03:52:39.196Z,100420.40
2018-05-02T03:53:41.677Z,100425.08
2018-05-02T03:54:44.155Z,100425.48
2018-05-02T03:55:46.642Z,100435.48
2018-05-02T03:56:49.133Z,100427.26
2018-05-02T03:57:51.608Z,100430.41
2018-05-02T03:58:54.091Z,100433.71
2018-05-02T04:00:08.278Z,100437.42
2018-05-02T04:01:22.550Z,100436.05
2018-05-02T04:02:36.884Z,100431.13
2018-05-02T04:03:51.151Z,100434.84
2018-05-02T04:05:05.529Z,100438.15
2018-05-02T04:06:15.522Z,100442.67
2018-05-02T04:07:18.006Z,100436.38
2018-05-02T04:08:20.496Z,100437.91
2018-05-02T04:09:22.962Z,100438.88
2018-05-02T04:10:25.444Z,100441.61
2018-05-02T04:11:27.965Z,100438.22
2018-05-02T04:12:30.540Z,100436.29
2018-05-02T04:13:33.006Z,100438.79
2018-05-02T04:14:35.496Z,100437.98
2018-05-02T04:15:38.023Z,100445.64
2018-05-02T04:16:40.531Z,100445.40
2018-05-02T04:17:43.025Z,100441.28
2018-05-02T04:18:45.496Z,100441.84
2018-05-02T04:19:48.016Z,100442.98
2018-05-02T04:20:50.507Z,100445.72
2018-05-02T04:21:53.027Z,100442.58
2018-05-02T04:22:55.524Z,100444.75
2018-05-02T04:23:58.015Z,100445.31
2018-05-02T04:25:00.500Z,100449.44
2018-05-02T04:26:03.008Z,100453.14
2018-05-02T04:27:05.498Z,100450.56
2018-05-02T04:28:07.980Z,100458.79
2018-05-02T04:29:10.450Z,100451.93
2018-05-02T04:30:12.971Z,100455.64
2018-05-02T04:31:15.474Z,100457.58
2018-05-02T04:32:17.962Z,100454.84
2018-05-02T04:33:20.434Z,100456.37
2018-05-02T04:34:22.920Z,100457.17
2018-05-02T04:35:25.405Z,100458.30
2018-05-02T04:36:27.986Z,100457.33
2018-05-02T04:37:30.545Z,100451.84
2018-05-02T04:38:33.037Z,100452.50
2018-05-02T04:39:35.529Z,100455.80
2018-05-02T04:40:38.021Z,100449.34
2018-05-02T04:41:40.491Z,100450.72
2018-05-02T04:42:42.989Z,100447.41
2018-05-02T04:43:45.481Z,100452.90
2018-05-02T04:44:48.057Z,100450.16
2018-05-02T04:45:50.546Z,100457.17
2018-05-02T04:46:53.026Z,100455.80
2018-05-02T04:47:55.522Z,100454.02
2018-05-02T04:48:58.013Z,100456.20
2018-05-02T04:50:00.496Z,100453.06
2018-05-02T04:51:02.989Z,100456.20
2018-05-02T04:52:05.466Z,100455.23
2018-05-02T04:53:07.996Z,100459.52
2018-05-02T04:54:10.470Z,100459.92
2018-05-02T04:55:12.946Z,100459.52
2018-05-02T04:56:15.432Z,100465.16
2018-05-02T04:57:17.902Z,100462.42
2018-05-02T04:58:20.424Z,100469.44
2018-05-02T04:59:22.918Z,100470.24
2018-05-02T05:00:25.409Z,100469.27
2018-05-02T05:01:27.888Z,100467.34
2018-05-02T05:02:30.381Z,100464.19
2018-05-02T05:03:32.888Z,100470.89
2018-05-02T05:04:35.395Z,100462.26
2018-05-02T05:05:37.907Z,100469.27
2018-05-02T05:06:40.488Z,100469.84
2018-05-02T05:07:42.901Z,100476.70
2018-05-02T05:08:45.413Z,100478.06
2018-05-02T05:09:47.895Z,100479.44
2018-05-02T05:10:50.416Z,100479.03
2018-05-02T05:11:52.905Z,100480.25
2018-05-02T05:12:55.406Z,100484.36
2018-05-02T05:13:57.904Z,100485.73
2018-05-02T05:15:00.389Z,100483.96
2018-05-02T05:16:02.873Z,100486.14
2018-05-02T05:17:05.344Z,100487.67
2018-05-02T05:18:07.856Z,100489.45
2018-05-02T05:19:10.378Z,100491.79
2018-05-02T05:20:12.872Z,100490.41
2018-05-02T05:21:15.342Z,100496.88
2018-05-02T05:22:17.843Z,100490.58
2018-05-02T05:23:20.322Z,100489.20
2018-05-02T05:24:22.824Z,100487.83
2018-05-02T05:25:25.306Z,100489.20
2018-05-02T05:26:27.794Z,100490.30
2018-05-02T05:27:30.337Z,100490.58
2018-05-02T05:28:32.918Z,100491.51
2018-05-02T05:29:35.421Z,100491.51
2018-05-02T05:30:38.037Z,100491.11
2018-05-02T05:31:40.529Z,100487.55
2018-05-02T05:32:43.062Z,100498.53
2018-05-02T05:33:45.539Z,100491.27
2018-05-02T05:34:48.035Z,100490.45
2018-05-02T05:35:50.502Z,100486.91
2018-05-02T05:36:52.989Z,100482.79
2018-05-02T05:37:55.460Z,100478.27
2018-05-02T05:38:57.953Z,100478.83
2018-05-02T05:40:00.457Z,100473.50
2018-05-02T05:41:02.961Z,100477.22
2018-05-02T05:42:05.439Z,100476.00
2018-05-02T05:43:07.929Z,100476.81
2018-05-02T05:44:10.418Z,100480.03
2018-05-02T05:45:12.961Z,100475.91
2018-05-02T05:46:15.444Z,100480.03
2018-05-02T05:47:17.932Z,100480.03
2018-05-02T05:48:20.444Z,100481.56
2018-05-02T05:49:22.936Z,100484.14
2018-05-02T05:50:25.458Z,100481.97
2018-05-02T05:51:27.948Z,100481.00
2018-05-02T05:52:30.443Z,100478.98
2018-05-02T05:53:32.945Z,100479.54
2018-05-02T05:54:35.457Z,100487.36
2018-05-02T05:55:37.985Z,100485.43
2018-05-02T05:56:40.494Z,100483.25
2018-05-02T05:57:42.978Z,100485.43
2018-05-02T05:58:45.471Z,100481.88
2018-05-02T05:59:47.964Z,100491.88
2018-05-02T06:00:50.630Z,100487.36
2018-05-02T06:01:53.055Z,100487.77
2018-05-02T06:02:55.658Z,100490.92
2018-05-02T06:03:58.132Z,100485.43
2018-05-02T06:05:00.674Z,100490.35
2018-05-02T06:06:03.240Z,100489.38
2018-05-02T06:07:05.744Z,100488.02
2018-05-02T06:08:08.215Z,100487.61
2018-05-02T06:09:10.683Z,100486.64
2018-05-02T06:10:13.170Z,100481.16
2018-05-02T06:11:15.675Z,100482.13
2018-05-02T06:12:18.157Z,100486.64
2018-05-02T06:13:20.659Z,100483.90
2018-05-02T06:14:23.210Z,100483.50
2018-05-02T06:15:25.698Z,100483.50
2018-05-02T06:16:28.225Z,100481.72
2018-05-02T06:17:30.709Z,100484.06
2018-05-02T06:18:33.244Z,100483.66
2018-05-02T06:19:35.729Z,100479.13
2018-05-02T06:20:38.223Z,100488.33
2018-05-02T06:21:40.713Z,100485.59
2018-05-02T06:22:43.182Z,100482.44
2018-05-02T06:23:45.692Z,100484.22
2018-05-02T06:24:48.177Z,100483.00
2018-05-02T06:25:50.746Z,100479.30
2018-05-02T06:26:53.243Z,100480.02
2018-05-02T06:27:55.771Z,100480.42
2018-05-02T06:28:58.331Z,100480.82
2018-05-02T06:30:00.806Z,100476.47
2018-05-02T06:31:03.311Z,100481.95
2018-05-02T06:32:05.828Z,100482.35
2018-05-02T06:33:08.332Z,100482.19
2018-05-02T06:34:10.835Z,100483.32
2018-05-02T06:35:13.381Z,100480.58
2018-05-02T06:36:15.851Z,100481.95
2018-05-02T06:37:18.334Z,100485.66
2018-05-02T06:38:20.825Z,100482.52
2018-05-02T06:39:23.302Z,100485.66
2018-05-02T06:40:25.877Z,100483.08
2018-05-02T06:41:28.388Z,100481.86
2018-05-02T06:42:30.903Z,100484.60
2018-05-02T06:43:33.483Z,100486.94
2018-05-02T06:44:35.920Z,100488.00
2018-05-02T06:45:38.410Z,100483.97
2018-05-02T06:46:40.896Z,100482.28
2018-05-02T06:47:43.389Z,100483.98
2018-05-02T06:48:45.879Z,100488.84
2018-05-02T06:49:48.383Z,100484.41
2018-05-02T06:50:50.872Z,100486.55
2018-05-02T06:51:53.361Z,100489.14
2018-05-02T06:52:55.861Z,100484.39
2018-05-02T06:53:58.344Z,100479.88
2018-05-02T06:55:00.829Z,100479.28
2018-05-02T06:56:03.324Z,100484.61
2018-05-02T06:57:05.824Z,100489.30
2018-05-02T06:58:08.295Z,100487.84
2018-05-02T06:59:10.766Z,100487.84
2018-05-02T07:00:13.257Z,100490.34
2018-05-02T07:01:15.749Z,100485.82
2018-05-02T07:02:18.267Z,100484.77
2018-05-02T07:03:20.769Z,100482.75
2018-05-02T07:04:23.267Z,100484.97
2018-05-02T07:05:25.793Z,100484.31
2018-05-02T07:06:28.297Z,100480.68
2018-05-02T07:07:30.907Z,100490.04
2018-05-02T07:08:33.382Z,100492.30
2018-05-02T07:09:35.887Z,100494.39
2018-05-02T07:10:38.385Z,100482.52
2018-05-02T07:11:40.944Z,100487.20
2018-05-02T07:12:43.452Z,100489.05
2018-05-02T07:13:45.936Z,100486.98
2018-05-02T07:14:48.437Z,100485.94
2018-05-02T07:15:50.929Z,100487.47
2018-05-02T07:16:53.438Z,100486.81
2018-05-02T07:17:55.967Z,100483.67
2018-05-02T07:18:58.455Z,100483.17
2018-05-02T07:20:00.955Z,100483.73
2018-05-02T07:21:03.432Z,100483.73
2018-05-02T07:22:05.931Z,100481.31
2018-05-02T07:23:08.426Z,100491.08
2018-05-02T07:24:10.902Z,100486.55
2018-05-02T07:25:13.404Z,100484.37
2018-05-02T07:26:15.909Z,100489.05
2018-05-02T07:27:18.393Z,100486.47
2018-05-02T07:28:20.984Z,100484.69
2018-05-02T07:29:23.468Z,100485.50
2018-05-02T07:30:25.953Z,100484.13
2018-05-02T07:31:28.430Z,100484.13
2018-05-02T07:32:31.053Z,100481.95
2018-05-02T07:33:33.569Z,100480.02
2018-05-02T07:34:36.038Z,100481.55
2018-05-02T07:35:38.525Z,100489.77
2018-05-02T07:36:41.013Z,100489.77
2018-05-02T07:37:43.514Z,100487.03
2018-05-02T07:38:46.051Z,100485.25
2018-05-02T07:39:48.528Z,100482.52
2018-05-02T07:40:51.010Z,100485.81
2018-05-02T07:41:53.511Z,100484.04
2018-05-02T07:42:56.108Z,100479.92
2018-05-02T07:43:58.609Z,100480.89
2018-05-02T07:45:01.184Z,100479.52
2018-05-02T07:46:03.756Z,100474.44
2018-05-02T07:47:06.263Z,100470.89
2018-05-02T07:48:08.803Z,100468.95
2018-05-02T07:49:11.286Z,100466.61
2018-05-02T07:50:13.773Z,100478.08
2018-05-02T07:51:16.275Z,100470.09
2018-05-02T07:52:18.789Z,100474.70
2018-05-02T07:53:21.279Z,100472.05
2018-05-02T07:54:23.797Z,100477.05
2018-05-02T07:55:26.316Z,100468.75
2018-05-02T07:56:28.866Z,100469.84
2018-05-02T07:57:31.297Z,100464.84
2018-05-02T07:58:33.785Z,100469.05
2018-05-02T07:59:36.305Z,100468.88
2018-05-02T08:00:38.778Z,100469.94
2018-05-02T08:01:41.280Z,100463.89
2018-05-02T08:02:43.769Z,100469.86
2018-05-02T08:03:46.252Z,100467.36
2018-05-02T08:04:48.775Z,100458.56
2018-05-02T08:05:51.242Z,100466.08
2018-05-02T08:06:53.742Z,100465.76
2018-05-02T08:07:56.229Z,100467.13
2018-05-02T08:08:58.740Z,100465.20
2018-05-02T08:10:01.316Z,100467.94
2018-05-02T08:11:03.812Z,100472.73
2018-05-02T08:12:06.321Z,100471.77
2018-05-02T08:13:08.828Z,100471.36
2018-05-02T08:14:11.339Z,100471.61
2018-05-02T08:15:13.852Z,100472.66
2018-05-02T08:16:16.396Z,100475.56
2018-05-02T08:17:18.871Z,100467.17
2018-05-02T08:18:21.414Z,100459.09
2018-05-02T08:19:23.916Z,100456.20
2018-05-02T08:20:26.425Z,100458.94
2018-05-02T08:21:28.988Z,100457.81
2018-05-02T08:22:31.477Z,100458.38
2018-05-02T08:23:33.948Z,100454.10
2018-05-02T08:24:36.428Z,100449.58
2018-05-02T08:25:38.927Z,100452.33
2018-05-02T08:26:41.487Z,100441.34
2018-05-02T08:27:43.924Z,100437.63
2018-05-02T08:28:46.410Z,100433.52
2018-05-02T08:29:48.896Z,100430.77
2018-05-02T08:30:51.398Z,100432.55
2018-05-02T08:31:53.907Z,100436.34
2018-05-02T08:32:56.491Z,100432.23
2018-05-02T08:33:58.994Z,100428.11
2018-05-02T08:35:01.551Z,100427.95
2018-05-02T08:36:04.051Z,100426.98
2018-05-02T08:37:06.551Z,100429.97
2018-05-02T08:38:09.023Z,100424.08
2018-05-02T08:39:11.508Z,100424.08
2018-05-02T08:40:14.007Z,100424.48
2018-05-02T08:41:16.493Z,100419.80
2018-05-02T08:42:18.958Z,100418.83
2018-05-02T08:43:21.467Z,100420.61
2018-05-02T08:44:23.974Z,100427.31
2018-05-02T08:45:26.492Z,100416.90
2018-05-02T08:46:29.004Z,100424.56
2018-05-02T08:47:31.498Z,100423.44
2018-05-02T08:48:34.050Z,100410.28
2018-05-02T08:49:36.518Z,100401.08
2018-05-02T08:50:39.032Z,100404.62
2018-05-02T08:51:41.520Z,100402.53
2018-05-02T08:52:44.023Z,100413.67
2018-05-02T08:53:46.517Z,100408.98
2018-05-02T08:54:49.018Z,100410.77
2018-05-02T08:55:51.516Z,100406.48
2018-05-02T08:56:54.007Z,100406.33
2018-05-02T08:57:56.501Z,100403.98
2018-05-02T08:58:58.993Z,100401.80
2018-05-02T09:00:01.490Z,100404.39
2018-05-02T09:01:03.975Z,100401.64
2018-05-02T09:02:06.479Z,100401.92
2018-05-02T09:03:08.969Z,100397.80
2018-05-02T09:04:11.438Z,100393.13
2018-05-02T09:05:13.963Z,100398.20
2018-05-02T09:06:16.447Z,100392.16
2018-05-02T09:07:18.955Z,100399.42
2018-05-02T09:08:21.469Z,100391.59
2018-05-02T09:09:23.957Z,100391.59
2018-05-02T09:10:26.460Z,100382.38
2018-05-02T09:11:28.988Z,100384.56
2018-05-02T09:12:31.482Z,100384.56
2018-05-02T09:13:33.955Z,100389.48
2018-05-02T09:14:36.459Z,100389.89
2018-05-02T09:15:38.968Z,100387.39
2018-05-02T09:16:41.454Z,100386.42
2018-05-02T09:17:44.041Z,100385.45
2018-05-02T09:18:46.550Z,100382.55
2018-05-02T09:19:49.022Z,100390.38
2018-05-02T09:20:51.532Z,100385.69
2018-05-02T09:21:54.051Z,100388.44
2018-05-02T09:22:56.559Z,100391.83
2018-05-02T09:23:59.053Z,100388.28
2018-05-02T09:25:01.569Z,100389.48
2018-05-02T09:26:04.127Z,100384.97
2018-05-02T09:27:06.688Z,100384.00
2018-05-02T09:28:09.251Z,100387.55
2018-05-02T09:29:11.809Z,100379.72
2018-05-02T09:30:14.296Z,100378.19
2018-05-02T09:31:16.793Z,100382.87
2018-05-02T09:32:19.286Z,100376.66
2018-05-02T09:33:21.775Z,100370.35
2018-05-02T09:34:24.267Z,100368.82
2018-05-02T09:35:26.767Z,100377.05
2018-05-02T09:36:29.267Z,100364.70
2018-05-02T09:37:31.784Z,100372.37
2018-05-02T09:38:34.250Z,100373.58
2018-05-02T09:39:37.081Z,100370.84
2018-05-02T09:40:39.627Z,100366.31
2018-05-02T09:41:42.439Z,100363.41
2018-05-02T09:42:44.930Z,100362.60
2018-05-02T09:43:47.444Z,100368.50
2018-05-02T09:44:49.947Z,100355.58
2018-05-02T09:45:52.465Z,100350.09
2018-05-02T09:46:55.024Z,100361.47
2018-05-02T09:47:57.581Z,100361.07
2018-05-02T09:49:00.147Z,100360.34
2018-05-02T09:50:02.634Z,100345.24
2018-05-02T09:51:05.124Z,100345.08
2018-05-02T09:52:07.618Z,100349.20
2018-05-02T09:53:10.105Z,100342.90
2018-05-02T09:54:12.611Z,100345.76
2018-05-02T09:55:15.079Z,100348.73
2018-05-02T09:56:17.550Z,100342.11
2018-05-02T09:57:20.033Z,100336.23
2018-05-02T09:58:22.532Z,100347.70
2018-05-02T09:59:25.035Z,100344.35
2018-05-02T10:00:30.418Z,100342.16
2018-05-02T10:01:32.886Z,100343.13
2018-05-02T10:02:35.391Z,100338.84
2018-05-02T10:03:37.896Z,100344.73
2018-05-02T10:04:40.388Z,100337.30
2018-05-02T10:05:42.946Z,100343.77
2018-05-02T10:06:45.433Z,100345.14
2018-05-02T10:07:47.967Z,100344.73
2018-05-02T10:08:50.466Z,100345.30
2018-05-02T10:09:52.985Z,100348.21
2018-05-02T10:10:55.468Z,100346.20
2018-05-02T10:11:57.957Z,100348.70
2018-05-02T10:13:00.458Z,100341.43
2018-05-02T10:14:02.961Z,100340.38
2018-05-02T10:15:05.459Z,100344.50
2018-05-02T10:16:07.949Z,100345.47
2018-05-02T10:17:10.433Z,100339.58
2018-05-02T10:18:12.939Z,100338.20
2018-05-02T10:19:15.581Z,100349.52
2018-05-02T10:20:18.084Z,100350.48
2018-05-02T10:21:20.574Z,100342.01
2018-05-02T10:22:23.043Z,100342.01
2018-05-02T10:23:25.541Z,100338.98
2018-05-02T10:24:28.045Z,100345.05
2018-05-02T10:25:30.560Z,100336.41
2018-05-02T10:26:33.037Z,100330.11
2018-05-02T10:27:35.541Z,100328.48
2018-05-02T10:28:38.032Z,100335.48
2018-05-02T10:29:40.523Z,100334.12
2018-05-02T10:30:43.024Z,100332.91
2018-05-02T10:31:45.503Z,100327.17
2018-05-02T10:32:48.080Z,100321.68
2018-05-02T10:33:50.564Z,100323.45
2018-05-02T10:34:53.083Z,100320.30
2018-05-02T10:35:55.558Z,100326.36
2018-05-02T10:36:58.157Z,100319.50
2018-05-02T10:38:00.592Z,100321.44
2018-05-02T10:39:03.077Z,100329.28
2018-05-02T10:40:05.586Z,100323.38
2018-05-02T10:41:08.115Z,100316.11
2018-05-02T10:42:10.603Z,100315.63
2018-05-02T10:43:13.118Z,100317.28
2018-05-02T10:44:15.599Z,100313.97
2018-05-02T10:45:18.104Z,100318.25
2018-05-02T10:46:20.613Z,100311.69
2018-05-02T10:47:23.082Z,100307.16
2018-05-02T10:48:25.569Z,100310.88
2018-05-02T10:49:28.075Z,100315.16
2018-05-02T10:50:30.744Z,100315.73
2018-05-02T10:51:33.189Z,100318.07
2018-05-02T10:52:35.663Z,100311.61
2018-05-02T10:53:38.173Z,100312.58
2018-05-02T10:54:40.665Z,100313.95
2018-05-02T10:55:43.192Z,100308.86
2018-05-02T10:56:45.692Z,100307.08
2018-05-02T10:57:48.336Z,100312.01
2018-05-02T10:58:50.897Z,100307.89
2018-05-02T10:59:53.487Z,100302.00
2018-05-02T11:00:56.061Z,100304.34
2018-05-02T11:01:58.613Z,100307.56
2018-05-02T11:03:01.087Z,100302.80
2018-05-02T11:04:03.563Z,100304.34
2018-05-02T11:05:06.067Z,100296.63
2018-05-02T11:06:08.590Z,100301.32
2018-05-02T11:07:11.076Z,100290.90
2018-05-02T11:08:13.548Z,100291.87
2018-05-02T11:09:16.036Z,100287.51
2018-05-02T11:10:18.505Z,100289.86
2018-05-02T11:11:21.008Z,100288.88
2018-05-02T11:12:23.514Z,100286.30
2018-05-02T11:13:26.001Z,100287.67
2018-05-02T11:14:28.504Z,100292.20
2018-05-02T11:15:31.080Z,100284.53
2018-05-02T11:16:33.607Z,100283.16
2018-05-02T11:17:36.112Z,100282.75
2018-05-02T11:18:38.597Z,100286.30
2018-05-02T11:19:41.130Z,100284.69
2018-05-02T11:20:43.692Z,100283.88
2018-05-02T11:21:46.252Z,100282.34
2018-05-02T11:22:48.752Z,100282.91
2018-05-02T11:23:51.256Z,100279.59
2018-05-02T11:24:53.735Z,100280.00
2018-05-02T11:25:56.225Z,100280.00
2018-05-02T11:26:58.719Z,100271.20
2018-05-02T11:28:01.197Z,100264.73
2018-05-02T11:29:03.681Z,100272.16
2018-05-02T11:30:06.187Z,100272.00
2018-05-02T11:31:08.688Z,100270.63
2018-05-02T11:32:11.188Z,100267.08
2018-05-02T11:33:13.687Z,100270.63
2018-05-02T11:34:16.235Z,100269.25
2018-05-02T11:35:18.717Z,100275.39
2018-05-02T11:36:21.205Z,100272.64
2018-05-02T11:37:23.723Z,100264.57
2018-05-02T11:38:26.208Z,100264.81
2018-05-02T11:39:28.679Z,100266.18
2018-05-02T11:40:31.189Z,100272.64
2018-05-02T11:41:33.674Z,100268.13
2018-05-02T11:42:36.174Z,100264.97
2018-05-02T11:43:38.749Z,100266.34
2018-05-02T11:44:41.238Z,100264.00
2018-05-02T11:45:43.856Z,100261.25
2018-05-02T11:46:46.359Z,100264.81
2018-05-02T11:47:48.864Z,100259.48
2018-05-02T11:48:51.335Z,100260.85
2018-05-02T11:49:53.836Z,100260.85
2018-05-02T11:50:56.343Z,100256.33
2018-05-02T11:51:58.873Z,100257.70
2018-05-02T11:53:01.516Z,100255.77
2018-05-02T11:54:04.072Z,100254.95
2018-05-02T11:55:06.579Z,100246.72
2018-05-02T11:56:09.067Z,100249.87